Time;durP1;ratioP1;P1;durP2;ratioP2;P2;SDS_P1;SDS_P2;PMS_P1;PMS_P2;Temp;Humidity;BMP_temperature;BMP_pressure;BME280_temperature;BME280_humidity;BME280_pressure;Samples;Min_cycle;Max_cycle;Signal;HPM_P1;HPM_P2
2023/04/23 00:00:39;;;;;;;1999.90;999.90;;;11.80;82.50;;;;;;5065347;28;20479;-75
2023/04/23 00:03:11;;;;;;;1999.90;999.90;;;11.70;82.90;;;;;;5069381;28;20538;-76
2023/04/23 00:05:37;;;;;;;1999.90;999.90;;;11.70;83.30;;;;;;5071658;28;20029;-75
2023/04/23 00:08:04;;;;;;;1999.90;999.90;;;11.70;83.50;;;;;;5069434;28;20043;-73
2023/04/23 00:10:31;;;;;;;1999.90;999.90;;;11.60;83.70;;;;;;5067666;28;20116;-76
2023/04/23 00:12:57;;;;;;;1999.90;999.90;;;11.60;83.50;;;;;;5072693;28;20021;-76
2023/04/23 00:15:23;;;;;;;1999.90;999.90;;;11.60;83.40;;;;;;5055469;28;20029;-75
2023/04/23 00:17:48;;;;;;;1999.90;999.90;;;11.60;83.60;;;;;;5073984;28;20078;-75
2023/04/23 00:20:15;;;;;;;1999.90;999.90;;;11.70;83.90;;;;;;5053475;28;20123;-75
2023/04/23 00:22:42;;;;;;;1999.90;999.90;;;11.60;83.90;;;;;;5071267;28;20044;-75
2023/04/23 00:25:09;;;;;;;1999.90;999.90;;;11.60;83.70;;;;;;5072630;28;20043;-76
2023/04/23 00:27:35;;;;;;;1999.90;999.90;;;11.50;84.20;;;;;;5068162;28;20036;-75
2023/04/23 00:30:02;;;;;;;1999.90;999.90;;;11.60;84.20;;;;;;5070606;28;20043;-73
2023/04/23 00:32:28;;;;;;;1999.90;999.90;;;11.40;84.80;;;;;;5072732;28;20055;-76
2023/04/23 00:34:55;;;;;;;1999.90;999.90;;;11.40;85.50;;;;;;5073739;28;20490;-73
2023/04/23 00:37:21;;;;;;;1999.90;999.90;;;11.40;84.70;;;;;;5030496;28;20024;-75
2023/04/23 00:39:47;;;;;;;1999.90;999.90;;;11.40;84.80;;;;;;5071595;28;20044;-75
2023/04/23 00:42:12;;;;;;;1999.90;999.90;;;11.40;84.90;;;;;;5061216;28;20039;-76
2023/04/23 00:44:40;;;;;;;1999.90;999.90;;;11.40;85.20;;;;;;5052866;28;20120;-76
2023/04/23 00:47:06;;;;;;;1999.90;999.90;;;11.40;85.40;;;;;;5072060;28;20024;-75
2023/04/23 00:49:36;;;;;;;1999.90;999.90;;;11.40;85.90;;;;;;5069239;28;20810;-75
2023/04/23 00:52:02;;;;;;;1999.90;999.90;;;11.40;85.20;;;;;;5062476;28;20028;-75
2023/04/23 00:54:28;;;;;;;1999.90;999.90;;;11.50;85.40;;;;;;5075141;28;20024;-75
2023/04/23 00:56:56;;;;;;;1999.90;999.90;;;11.50;85.50;;;;;;5077021;28;20051;-75
2023/04/23 00:59:26;;;;;;;1999.90;999.90;;;11.50;85.20;;;;;;5072106;28;20050;-74
2023/04/23 01:01:53;;;;;;;1999.90;999.90;;;11.50;85.10;;;;;;5076067;28;20028;-75
2023/04/23 01:04:21;;;;;;;1999.90;999.90;;;11.50;85.50;;;;;;5078252;28;20036;-75
2023/04/23 01:06:47;;;;;;;1999.90;999.90;;;11.40;85.70;;;;;;5062792;28;20440;-75
2023/04/23 01:09:14;;;;;;;1999.90;999.90;;;11.40;85.80;;;;;;5060597;28;20055;-75
2023/04/23 01:11:42;;;;;;;1999.90;999.90;;;11.40;85.80;;;;;;5077780;28;20032;-75
2023/04/23 01:14:09;;;;;;;1999.90;999.90;;;11.40;85.10;;;;;;5059424;28;20040;-75
2023/04/23 01:16:37;;;;;;;1999.90;999.90;;;11.50;84.30;;;;;;5075622;28;20020;-75
2023/04/23 01:19:05;;;;;;;1999.90;999.90;;;11.60;83.90;;;;;;5071333;28;20111;-75
2023/04/23 01:21:33;;;;;;;1999.90;999.90;;;11.60;83.80;;;;;;5043269;28;20481;-75
2023/04/23 01:23:59;;;;;;;1999.90;999.90;;;11.70;83.60;;;;;;5067314;28;20063;-75
2023/04/23 01:26:44;;;;;;;1999.90;999.90;;;11.70;83.10;;;;;;5074434;28;20121;-75
2023/04/23 01:29:10;;;;;;;1999.90;999.90;;;11.70;83.40;;;;;;5076336;28;20107;-75
2023/04/23 01:31:36;;;;;;;1999.90;999.90;;;11.70;82.90;;;;;;5070167;28;20205;-75
2023/04/23 01:34:02;;;;;;;1999.90;999.90;;;11.80;83.10;;;;;;5075618;28;20398;-74
2023/04/23 01:36:30;;;;;;;1999.90;999.90;;;11.80;83.30;;;;;;5081827;28;20032;-74
2023/04/23 01:38:55;;;;;;;1999.90;999.90;;;11.80;83.30;;;;;;5060441;28;20040;-74
2023/04/23 01:41:21;;;;;;;1999.90;999.90;;;11.70;83.80;;;;;;5061826;28;20474;-74
2023/04/23 01:43:47;;;;;;;1999.90;999.90;;;11.70;84.20;;;;;;5062761;28;20082;-74
2023/04/23 01:46:13;;;;;;;1999.90;999.90;;;11.60;85.40;;;;;;5073980;28;20043;-75
2023/04/23 01:48:39;;;;;;;1999.90;999.90;;;11.50;86.40;;;;;;5038145;28;20068;-75
2023/04/23 01:51:05;;;;;;;1999.90;999.90;;;11.40;86.80;;;;;;5072029;28;20056;-75
2023/04/23 01:53:30;;;;;;;1999.90;999.90;;;11.30;87.50;;;;;;5060681;28;20147;-75
2023/04/23 01:55:56;;;;;;;1999.90;999.90;;;11.30;88.50;;;;;;5053190;28;20153;-75
2023/04/23 01:58:23;;;;;;;1999.90;999.90;;;11.20;90.20;;;;;;5071612;28;20116;-75
2023/04/23 02:00:49;;;;;;;1999.90;999.90;;;11.10;91.80;;;;;;5072446;28;20069;-75
2023/04/23 02:03:15;;;;;;;1999.90;999.90;;;11.10;94.10;;;;;;5076770;28;20036;-75
2023/04/23 02:05:42;;;;;;;1999.90;999.90;;;10.90;96.00;;;;;;5062808;28;20036;-75
2023/04/23 02:08:09;;;;;;;1999.90;999.90;;;12.00;98.30;;;;;;5071923;28;20032;-75
2023/04/23 02:10:34;;;;;;;1999.90;999.90;;;13.20;99.90;;;;;;5076546;28;20032;-75
2023/04/23 02:13:02;;;;;;;1999.90;999.90;;;13.00;99.90;;;;;;5071211;28;20873;-75
2023/04/23 02:15:28;;;;;;;1999.90;999.90;;;12.70;99.90;;;;;;5059905;28;20028;-75
2023/04/23 02:17:54;;;;;;;1999.90;999.90;;;13.30;99.90;;;;;;5070219;28;20030;-75
2023/04/23 02:20:21;;;;;;;1999.90;999.90;;;12.90;99.90;;;;;;5055885;28;20036;-75
2023/04/23 02:22:47;;;;;;;1999.90;999.90;;;12.80;99.90;;;;;;5059866;28;20044;-75
2023/04/23 02:25:16;;;;;;;1999.90;999.90;;;12.70;99.90;;;;;;5068638;28;20113;-75
2023/04/23 02:27:43;;;;;;;1999.90;999.90;;;12.50;99.90;;;;;;5062555;28;20044;-75
2023/04/23 02:30:10;;;;;;;1999.90;999.90;;;12.50;99.90;;;;;;5074802;28;20052;-75
2023/04/23 02:32:36;;;;;;;1999.90;999.90;;;12.40;99.90;;;;;;5071401;28;20090;-75
2023/04/23 02:35:02;;;;;;;1999.90;999.90;;;12.40;99.90;;;;;;5071055;28;20017;-75
2023/04/23 02:37:28;;;;;;;1999.90;999.90;;;12.40;99.90;;;;;;5059183;28;20124;-75
2023/04/23 02:39:53;;;;;;;1999.90;999.90;;;12.30;99.90;;;;;;5059857;28;20078;-75
2023/04/23 02:42:19;;;;;;;1999.90;999.90;;;12.40;99.90;;;;;;5075650;28;20032;-75
2023/04/23 02:44:45;;;;;;;1999.90;999.90;;;12.40;99.90;;;;;;5055738;28;20032;-75
2023/04/23 02:47:11;;;;;;;1999.90;999.90;;;12.40;99.90;;;;;;5069433;28;20388;-75
2023/04/23 02:49:36;;;;;;;1999.90;999.90;;;12.40;99.90;;;;;;5072204;28;20067;-74
2023/04/23 02:52:03;;;;;;;1999.90;999.90;;;12.50;99.90;;;;;;5072371;28;20064;-74
2023/04/23 02:54:31;;;;;;;1999.90;999.90;;;12.50;99.90;;;;;;5073102;28;20032;-75
2023/04/23 02:56:57;;;;;;;1999.90;999.90;;;12.60;99.90;;;;;;5057746;28;20036;-75
2023/04/23 02:59:23;;;;;;;1999.90;999.90;;;12.70;99.90;;;;;;5059725;28;20070;-74
2023/04/23 03:01:50;;;;;;;1999.90;999.90;;;12.50;99.90;;;;;;5075000;28;20041;-74
2023/04/23 03:04:17;;;;;;;1999.90;999.90;;;12.90;99.90;;;;;;5053606;28;20080;-75
2023/04/23 03:06:42;;;;;;;1999.90;999.90;;;12.60;99.90;;;;;;5059965;28;20042;-75
2023/04/23 03:09:08;;;;;;;1999.90;999.90;;;12.50;99.90;;;;;;5070075;28;20067;-74
2023/04/23 03:11:34;;;;;;;1999.90;999.90;;;12.40;99.90;;;;;;5073529;28;20368;-75
2023/04/23 03:13:59;;;;;;;1999.90;999.90;;;12.10;99.90;;;;;;5069941;28;20544;-75
2023/04/23 03:16:27;;;;;;;1999.90;999.90;;;11.70;99.90;;;;;;5059311;28;20032;-75
2023/04/23 03:18:52;;;;;;;1999.90;999.90;;;11.80;99.90;;;;;;5072415;28;20027;-75
2023/04/23 03:21:18;;;;;;;1999.90;999.90;;;11.60;99.90;;;;;;5057470;28;20048;-74
2023/04/23 03:23:44;;;;;;;1999.90;999.90;;;11.50;99.90;;;;;;5075418;28;20052;-75
2023/04/23 03:26:09;;;;;;;1999.90;999.90;;;11.60;99.90;;;;;;5056589;28;20040;-75
2023/04/23 03:28:35;;;;;;;1999.90;999.90;;;11.50;99.90;;;;;;5057732;28;20028;-75
2023/04/23 03:31:00;;;;;;;1999.90;999.90;;;11.30;99.90;;;;;;5072390;28;20525;-75
2023/04/23 03:33:26;;;;;;;1999.90;999.90;;;11.30;99.90;;;;;;5058070;28;20077;-75
2023/04/23 03:35:52;;;;;;;1999.90;999.90;;;11.50;99.90;;;;;;5078024;28;20052;-75
2023/04/23 03:38:17;;;;;;;1999.90;999.90;;;11.40;99.90;;;;;;5066681;28;20063;-75
2023/04/23 03:40:44;;;;;;;1999.90;999.90;;;11.30;99.90;;;;;;5074868;28;20229;-74
2023/04/23 03:43:09;;;;;;;1999.90;999.90;;;11.30;99.90;;;;;;5071511;28;20500;-75
2023/04/23 03:45:35;;;;;;;1999.90;999.90;;;11.30;99.90;;;;;;5037264;28;20126;-74
2023/04/23 03:48:01;;;;;;;1999.90;999.90;;;11.20;99.90;;;;;;5070554;28;20060;-75
2023/04/23 03:50:26;;;;;;;1999.90;999.90;;;11.10;99.90;;;;;;5043163;28;20064;-75
2023/04/23 03:52:52;;;;;;;1999.90;999.90;;;10.80;99.90;;;;;;5070764;28;20025;-75
2023/04/23 03:55:19;;;;;;;1999.90;999.90;;;10.80;99.90;;;;;;5076691;28;20394;-75
2023/04/23 03:57:45;;;;;;;1999.90;999.90;;;10.80;99.90;;;;;;5069522;28;20052;-75
2023/04/23 04:00:11;;;;;;;1999.90;999.90;;;11.00;99.90;;;;;;5056639;28;20402;-75
2023/04/23 04:02:38;;;;;;;1999.90;999.90;;;11.10;99.90;;;;;;5072976;28;20063;-75
2023/04/23 04:05:05;;;;;;;1999.90;999.90;;;11.30;99.90;;;;;;5058506;28;20025;-74
2023/04/23 04:07:31;;;;;;;1999.90;999.90;;;11.30;99.90;;;;;;5072383;28;20081;-75
2023/04/23 04:09:56;;;;;;;1999.90;999.90;;;11.20;99.90;;;;;;5060020;28;20033;-75
2023/04/23 04:12:22;;;;;;;1999.90;999.90;;;11.30;99.90;;;;;;5058237;28;20039;-75
2023/04/23 04:14:47;;;;;;;1999.90;999.90;;;11.20;99.90;;;;;;5075204;28;20028;-75
2023/04/23 04:17:14;;;;;;;1999.90;999.90;;;11.10;99.90;;;;;;5074329;28;20024;-75
2023/04/23 04:19:41;;;;;;;1999.90;999.90;;;10.90;99.90;;;;;;5061269;28;20100;-75
2023/04/23 04:22:07;;;;;;;1999.90;999.90;;;10.90;99.90;;;;;;5080632;28;20490;-75
2023/04/23 04:24:34;;;;;;;1999.90;999.90;;;10.90;99.90;;;;;;5076908;28;20056;-74
2023/04/23 04:27:00;;;;;;;1999.90;999.90;;;10.90;99.90;;;;;;5073581;28;20024;-74
2023/04/23 04:29:27;;;;;;;1999.90;999.90;;;10.90;99.90;;;;;;5060819;28;20032;-75
2023/04/23 04:31:53;;;;;;;1999.90;999.90;;;10.90;99.90;;;;;;5076409;28;20059;-75
2023/04/23 04:34:19;;;;;;;1999.90;999.90;;;10.90;99.90;;;;;;5060710;28;20020;-75
2023/04/23 04:36:45;;;;;;;1999.90;999.90;;;11.00;99.90;;;;;;5079234;28;20482;-75
2023/04/23 04:39:13;;;;;;;1999.90;999.90;;;11.00;99.90;;;;;;5069657;28;20037;-75
2023/04/23 04:41:39;;;;;;;1999.90;999.90;;;11.10;99.90;;;;;;5046941;28;20191;-75
2023/04/23 04:44:07;;;;;;;1999.90;999.90;;;11.00;99.90;;;;;;5074074;28;20024;-75
2023/04/23 04:46:33;;;;;;;1999.90;999.90;;;11.00;99.90;;;;;;5064175;28;20406;-75
2023/04/23 04:48:59;;;;;;;1999.90;999.90;;;11.10;99.90;;;;;;5076253;28;20083;-75
2023/04/23 04:51:27;;;;;;;1999.90;999.90;;;11.10;99.90;;;;;;5075553;28;20371;-75
2023/04/23 04:53:53;;;;;;;1999.90;999.90;;;11.00;99.90;;;;;;5072238;28;20489;-75
2023/04/23 04:56:18;;;;;;;1999.90;999.90;;;10.90;99.90;;;;;;5079260;28;20119;-75
2023/04/23 04:58:44;;;;;;;1999.90;999.90;;;10.90;99.90;;;;;;5073676;28;20036;-74
2023/04/23 05:01:12;;;;;;;1999.90;999.90;;;10.90;99.90;;;;;;5075795;28;20043;-74
2023/04/23 05:03:38;;;;;;;1999.90;999.90;;;10.90;99.90;;;;;;5077392;28;20025;-75
2023/04/23 05:06:03;;;;;;;1999.90;999.90;;;10.80;99.90;;;;;;5077450;28;20024;-74
2023/04/23 05:08:29;;;;;;;1999.90;999.90;;;10.80;99.90;;;;;;5076269;28;20054;-75
2023/04/23 05:10:55;;;;;;;1999.90;999.90;;;10.60;99.90;;;;;;5061085;28;20552;-75
2023/04/23 05:13:21;;;;;;;1999.90;999.90;;;10.60;99.90;;;;;;5058947;28;20029;-74
2023/04/23 05:15:46;;;;;;;1999.90;999.90;;;10.70;99.90;;;;;;5074805;28;20529;-74
2023/04/23 05:18:12;;;;;;;1999.90;999.90;;;10.60;99.90;;;;;;5071976;28;20060;-75
2023/04/23 05:20:38;;;;;;;1999.90;999.90;;;10.60;99.90;;;;;;5072236;28;20045;-75
2023/04/23 05:23:04;;;;;;;1999.90;999.90;;;10.60;99.90;;;;;;5060891;28;20036;-75
2023/04/23 05:25:30;;;;;;;1999.90;999.90;;;10.60;99.90;;;;;;5077251;28;20047;-74
2023/04/23 05:27:56;;;;;;;1999.90;999.90;;;10.70;99.90;;;;;;5073230;28;20032;-75
2023/04/23 05:30:22;;;;;;;1999.90;999.90;;;10.60;99.90;;;;;;5071024;28;20124;-75
2023/04/23 05:32:48;;;;;;;1999.90;999.90;;;10.60;99.90;;;;;;5065533;28;20109;-75
2023/04/23 05:35:15;;;;;;;1999.90;999.90;;;10.70;99.90;;;;;;5060376;28;20056;-75
2023/04/23 05:37:41;;;;;;;1999.90;999.90;;;10.80;99.90;;;;;;5072317;28;20911;-75
2023/04/23 05:40:08;;;;;;;1999.90;999.90;;;10.90;99.90;;;;;;5071894;28;20056;-74
2023/04/23 05:42:34;;;;;;;1999.90;999.90;;;11.10;99.90;;;;;;5040489;28;20029;-75
2023/04/23 05:45:01;;;;;;;1999.90;999.90;;;11.30;99.90;;;;;;5041969;28;20040;-74
2023/04/23 05:47:28;;;;;;;1999.90;999.90;;;11.40;99.90;;;;;;5068595;28;20037;-74
2023/04/23 05:49:56;;;;;;;1999.90;999.90;;;11.50;99.90;;;;;;5071654;28;20025;-74
2023/04/23 05:52:22;;;;;;;1999.90;999.90;;;11.40;99.90;;;;;;5072959;28;20044;-75
2023/04/23 05:54:47;;;;;;;1999.90;999.90;;;11.30;99.90;;;;;;5076737;28;20083;-74
2023/04/23 05:57:13;;;;;;;1999.90;999.90;;;11.30;99.90;;;;;;5058105;28;20032;-74
2023/04/23 05:59:39;;;;;;;1999.90;999.90;;;11.20;99.90;;;;;;5075595;28;20108;-74
2023/04/23 06:02:05;;;;;;;1999.90;999.90;;;11.20;99.90;;;;;;5070666;28;20170;-74
2023/04/23 06:04:30;;;;;;;1999.90;999.90;;;11.10;99.90;;;;;;5074605;28;20036;-74
2023/04/23 06:06:56;;;;;;;1999.90;999.90;;;11.10;99.90;;;;;;5074814;28;20021;-75
2023/04/23 06:09:22;;;;;;;1999.90;999.90;;;11.10;99.90;;;;;;5068659;28;20037;-75
2023/04/23 06:11:49;;;;;;;1999.90;999.90;;;11.10;99.90;;;;;;5052047;28;20036;-75
2023/04/23 06:14:15;;;;;;;1999.90;999.90;;;11.10;99.90;;;;;;5067068;28;20044;-75
2023/04/23 06:16:41;;;;;;;1999.90;999.90;;;11.10;99.90;;;;;;5056756;28;20181;-75
2023/04/23 06:19:06;;;;;;;1999.90;999.90;;;11.00;99.90;;;;;;5070291;28;20542;-75
2023/04/23 06:21:32;;;;;;;1999.90;999.90;;;11.10;99.90;;;;;;5051889;28;20066;-74
2023/04/23 06:23:58;;;;;;;1999.90;999.90;;;10.90;99.90;;;;;;5066908;28;20406;-75
2023/04/23 06:26:24;;;;;;;1999.90;999.90;;;11.00;99.90;;;;;;5051319;28;20032;-74
2023/04/23 06:28:49;;;;;;;1999.90;999.90;;;11.20;99.90;;;;;;5067107;28;20037;-74
2023/04/23 06:31:15;;;;;;;1999.90;999.90;;;11.10;99.90;;;;;;5057204;28;20105;-75
2023/04/23 06:33:41;;;;;;;1999.90;999.90;;;11.20;99.90;;;;;;5076600;28;20032;-75
2023/04/23 06:36:10;;;;;;;1999.90;999.90;;;11.20;99.90;;;;;;5067478;28;20051;-75
2023/04/23 06:38:36;;;;;;;1999.90;999.90;;;11.30;99.90;;;;;;5072778;28;20040;-75
2023/04/23 06:41:03;;;;;;;1999.90;999.90;;;11.20;99.90;;;;;;5075008;28;20036;-75
2023/04/23 06:43:28;;;;;;;1999.90;999.90;;;11.30;99.90;;;;;;5060134;28;20369;-75
2023/04/23 06:45:55;;;;;;;1999.90;999.90;;;11.40;99.90;;;;;;5053217;28;20138;-74
2023/04/23 06:48:21;;;;;;;1999.90;999.90;;;11.40;99.90;;;;;;5063663;28;20147;-75
2023/04/23 06:50:47;;;;;;;1999.90;999.90;;;11.30;99.90;;;;;;5073065;28;20040;-74
2023/04/23 06:53:14;;;;;;;1999.90;999.90;;;11.30;99.90;;;;;;5071851;28;20048;-80
2023/04/23 06:55:40;;;;;;;1999.90;999.90;;;11.40;99.90;;;;;;5073298;28;20057;-76
2023/04/23 06:58:08;;;;;;;1999.90;999.90;;;11.30;99.90;;;;;;5070377;28;20025;-77
2023/04/23 07:00:34;;;;;;;1999.90;999.90;;;11.50;99.90;;;;;;5074425;28;20106;-77
2023/04/23 07:03:00;;;;;;;1999.90;999.90;;;11.50;99.90;;;;;;5048008;28;20041;-77
2023/04/23 07:05:26;;;;;;;1999.90;999.90;;;11.60;99.90;;;;;;5066115;28;20037;-78
2023/04/23 07:07:51;;;;;;;1999.90;999.90;;;11.60;99.90;;;;;;5050575;28;20111;-77
2023/04/23 07:10:17;;;;;;;1999.90;999.90;;;11.60;99.90;;;;;;5070198;28;20040;-78
2023/04/23 07:12:43;;;;;;;1999.90;999.90;;;11.50;99.90;;;;;;5069258;28;20512;-78
2023/04/23 07:15:09;;;;;;;1999.90;999.90;;;11.50;99.90;;;;;;5072932;28;20066;-77
2023/04/23 07:17:35;;;;;;;1999.90;999.90;;;11.40;99.90;;;;;;5059106;28;20120;-77
2023/04/23 07:20:05;;;;;;;1999.90;999.90;;;11.60;99.90;;;;;;5075305;28;20470;-78
2023/04/23 07:22:31;;;;;;;1999.90;999.90;;;11.60;99.90;;;;;;5068670;28;20029;-77
2023/04/23 07:24:57;;;;;;;1999.90;999.90;;;11.80;99.90;;;;;;5073422;28;20060;-77
2023/04/23 07:27:23;;;;;;;1999.90;999.90;;;12.10;99.90;;;;;;5057141;28;20063;-77
2023/04/23 07:29:49;;;;;;;1999.90;999.90;;;12.10;99.90;;;;;;5050669;28;20033;-77
2023/04/23 07:32:14;;;;;;;1999.90;999.90;;;12.10;99.90;;;;;;5056918;28;20090;-77
2023/04/23 07:34:41;;;;;;;1999.90;999.90;;;12.20;99.90;;;;;;5050959;28;20025;-77
2023/04/23 07:37:07;;;;;;;1999.90;999.90;;;12.50;99.90;;;;;;5060557;28;20040;-78
2023/04/23 07:39:33;;;;;;;1999.90;999.90;;;12.50;99.90;;;;;;5064721;28;20115;-78
2023/04/23 07:41:59;;;;;;;1999.90;999.90;;;12.50;99.90;;;;;;5054605;28;20434;-78
2023/04/23 07:44:25;;;;;;;1999.90;999.90;;;13.00;99.90;;;;;;5072329;28;20031;-78
2023/04/23 07:46:51;;;;;;;1999.90;999.90;;;12.40;99.90;;;;;;5050906;28;20033;-77
2023/04/23 07:49:17;;;;;;;1999.90;999.90;;;12.30;99.90;;;;;;5073504;28;20071;-77
2023/04/23 07:51:42;;;;;;;1999.90;999.90;;;12.60;99.90;;;;;;5050591;28;20119;-78
2023/04/23 07:54:09;;;;;;;1999.90;999.90;;;12.40;99.90;;;;;;5050055;28;20036;-82
2023/04/23 07:56:35;;;;;;;1999.90;999.90;;;12.00;99.90;;;;;;5048302;28;20039;-81
2023/04/23 07:59:01;;;;;;;1999.90;999.90;;;12.00;99.90;;;;;;5056742;28;20039;-79
2023/04/23 08:01:27;;;;;;;1999.90;999.90;;;12.10;99.90;;;;;;5072297;28;20150;-80
2023/04/23 08:03:54;;;;;;;1999.90;999.90;;;12.30;99.90;;;;;;5039519;28;20494;-78
2023/04/23 08:06:22;;;;;;;1999.90;999.90;;;12.20;99.90;;;;;;5067641;28;20051;-78
2023/04/23 08:08:48;;;;;;;1999.90;999.90;;;11.90;99.90;;;;;;5067084;28;20103;-78
2023/04/23 08:11:13;;;;;;;1999.90;999.90;;;12.10;99.90;;;;;;5071514;28;20108;-77
2023/04/23 08:13:39;;;;;;;1999.90;999.90;;;12.20;99.90;;;;;;5046679;28;20106;-77
2023/04/23 08:16:05;;;;;;;1999.90;999.90;;;12.50;99.90;;;;;;5050936;28;20025;-77
2023/04/23 08:18:32;;;;;;;1999.90;999.90;;;12.80;99.90;;;;;;5035126;28;20376;-77
2023/04/23 08:20:58;;;;;;;1999.90;999.90;;;12.60;99.90;;;;;;5074054;28;20021;-77
2023/04/23 08:23:24;;;;;;;1999.90;999.90;;;13.00;99.90;;;;;;5055579;28;20045;-77
2023/04/23 08:25:50;;;;;;;1999.90;999.90;;;13.00;99.90;;;;;;5070959;28;20035;-77
2023/04/23 08:28:17;;;;;;;1999.90;999.90;;;12.70;99.90;;;;;;5066455;28;20115;-77
2023/04/23 08:30:43;;;;;;;1999.90;999.90;;;12.10;99.90;;;;;;5075035;28;20750;-80
2023/04/23 08:33:09;;;;;;;1999.90;999.90;;;12.10;99.90;;;;;;5048459;28;20040;-78
2023/04/23 08:35:35;;;;;;;1999.90;999.90;;;12.20;99.90;;;;;;5071966;28;20024;-78
2023/04/23 08:38:00;;;;;;;1999.90;999.90;;;12.40;99.90;;;;;;5057108;28;20579;-78
2023/04/23 08:40:30;;;;;;;1999.90;999.90;;;12.20;99.90;;;;;;5070876;28;20033;-78
2023/04/23 08:43:06;;;;;;;1999.90;999.90;;;12.50;99.90;;;;;;5059923;28;20040;-77
2023/04/23 08:45:33;;;;;;;1999.90;999.90;;;12.30;99.90;;;;;;5064822;28;20079;-78
2023/04/23 08:48:00;;;;;;;1999.90;999.90;;;12.20;99.90;;;;;;5068840;28;20025;-78
2023/04/23 08:50:28;;;;;;;1999.90;999.90;;;12.50;99.90;;;;;;5054085;28;20039;-77
2023/04/23 08:52:55;;;;;;;1999.90;999.90;;;12.70;99.90;;;;;;5073817;28;20589;-78
2023/04/23 08:55:22;;;;;;;1999.90;999.90;;;12.90;99.90;;;;;;5070172;28;20386;-78
2023/04/23 08:57:49;;;;;;;1999.90;999.90;;;12.40;99.90;;;;;;5069879;28;20104;-77
2023/04/23 09:00:17;;;;;;;1999.90;999.90;;;12.90;99.90;;;;;;5046627;28;20033;-78
2023/04/23 09:02:47;;;;;;;1999.90;999.90;;;12.50;99.90;;;;;;5055839;28;20035;-76
2023/04/23 09:05:13;;;;;;;1999.90;999.90;;;12.60;99.90;;;;;;5067492;28;20183;-78
2023/04/23 09:07:40;;;;;;;1999.90;999.90;;;12.80;99.90;;;;;;5075271;28;20080;-78
2023/04/23 09:10:08;;;;;;;1999.90;999.90;;;12.80;99.90;;;;;;5059583;28;20028;-78
2023/04/23 09:12:38;;;;;;;1999.90;999.90;;;12.70;99.90;;;;;;5070347;28;20051;-78
2023/04/23 09:15:09;;;;;;;1999.90;999.90;;;12.80;99.90;;;;;;5044502;28;20035;-77
2023/04/23 09:17:37;;;;;;;1999.90;999.90;;;12.70;99.90;;;;;;5074349;28;20094;-78
2023/04/23 09:20:03;;;;;;;1999.90;999.90;;;13.10;99.90;;;;;;5072577;28;20032;-78
2023/04/23 09:22:51;;;;;;;1999.90;999.90;;;13.50;99.90;;;;;;5077974;28;20548;-78
2023/04/23 09:25:23;;;;;;;1999.90;999.90;;;13.40;99.90;;;;;;5052454;28;20514;-78
2023/04/23 09:27:50;;;;;;;1999.90;999.90;;;13.80;99.90;;;;;;5042778;28;20064;-77
2023/04/23 09:30:17;;;;;;;1999.90;999.90;;;13.70;99.90;;;;;;5067560;28;20029;-77
2023/04/23 09:32:44;;;;;;;1999.90;999.90;;;14.10;99.90;;;;;;5074291;28;20036;-77
2023/04/23 09:35:15;;;;;;;1999.90;999.90;;;14.20;99.90;;;;;;5056971;28;20036;-78
2023/04/23 09:37:43;;;;;;;1999.90;999.90;;;14.10;99.90;;;;;;5070359;28;20047;-77
2023/04/23 09:40:12;;;;;;;1999.90;999.90;;;14.00;99.90;;;;;;5051916;28;20498;-77
2023/04/23 09:42:38;;;;;;;1999.90;999.90;;;13.80;99.90;;;;;;5052730;28;20052;-78
2023/04/23 09:45:06;;;;;;;1999.90;999.90;;;13.70;99.90;;;;;;5076264;28;20793;-77
2023/04/23 09:47:40;;;;;;;1999.90;999.90;;;14.00;99.90;;;;;;5052909;28;20036;-77
2023/04/23 09:50:09;;;;;;;1999.90;999.90;;;14.50;99.90;;;;;;5052906;28;20559;-78
2023/04/23 09:52:38;;;;;;;1999.90;999.90;;;14.40;99.90;;;;;;5057041;28;20123;-78
2023/04/23 09:55:05;;;;;;;1999.90;999.90;;;14.20;99.90;;;;;;5059628;28;20028;-78
2023/04/23 09:57:41;;;;;;;1999.90;999.90;;;14.00;99.90;;;;;;5055982;28;20029;-77
2023/04/23 10:00:15;;;;;;;1999.90;999.90;;;13.50;99.90;;;;;;5049378;28;20031;-77
2023/04/23 10:02:46;;;;;;;1999.90;999.90;;;13.70;99.90;;;;;;5072693;28;20079;-78
2023/04/23 10:05:21;;;;;;;1999.90;999.90;;;13.90;99.90;;;;;;5068786;28;20025;-77
2023/04/23 10:07:47;;;;;;;1999.90;999.90;;;14.20;99.90;;;;;;5055452;28;20432;-78
2023/04/23 10:10:14;;;;;;;1999.90;999.90;;;13.90;99.90;;;;;;5050133;28;20028;-78
2023/04/23 10:12:41;;;;;;;1999.90;999.90;;;14.60;99.90;;;;;;5076167;28;20069;-78
2023/04/23 10:15:09;;;;;;;1999.90;999.90;;;14.60;99.90;;;;;;5068249;28;20056;-77
2023/04/23 10:17:36;;;;;;;1999.90;999.90;;;14.80;99.90;;;;;;5055969;28;20044;-78
2023/04/23 10:20:02;;;;;;;1999.90;999.90;;;15.10;99.90;;;;;;5049909;28;20042;-77
2023/04/23 10:22:29;;;;;;;1999.90;999.90;;;15.50;99.90;;;;;;5074567;28;20033;-77
2023/04/23 10:24:57;;;;;;;1999.90;999.90;;;15.70;99.90;;;;;;5071800;28;20094;-76
2023/04/23 10:27:27;;;;;;;1999.90;999.90;;;15.70;99.90;;;;;;5067198;28;20048;-79
2023/04/23 10:29:53;;;;;;;1999.90;999.90;;;15.90;99.90;;;;;;5065318;28;20029;-78
2023/04/23 10:32:20;;;;;;;1999.90;999.90;;;15.60;99.90;;;;;;5067096;28;20406;-78
2023/04/23 10:34:47;;;;;;;1999.90;999.90;;;16.10;99.90;;;;;;5068767;28;20421;-78
2023/04/23 10:37:14;;;;;;;1999.90;999.90;;;16.50;99.30;;;;;;5072286;28;20025;-78
2023/04/23 10:39:43;;;;;;;1999.90;999.90;;;16.80;89.00;;;;;;5067047;28;20039;-78
2023/04/23 10:42:12;;;;;;;1999.90;999.90;;;16.80;78.70;;;;;;5071757;28;20113;-77
2023/04/23 10:44:38;;;;;;;1999.90;999.90;;;17.00;83.10;;;;;;5059594;28;20038;-78
2023/04/23 10:47:05;;;;;;;1999.90;999.90;;;17.20;79.50;;;;;;5056742;28;20028;-78
2023/04/23 10:49:32;;;;;;;1999.90;999.90;;;17.90;79.50;;;;;;5055359;28;20110;-78
2023/04/23 10:52:09;;;;;;;1999.90;999.90;;;17.70;74.50;;;;;;5075011;28;20030;-79
2023/04/23 10:54:35;;;;;;;1999.90;999.90;;;17.90;75.00;;;;;;5059351;28;20140;-77
2023/04/23 10:57:05;;;;;;;1999.90;999.90;;;18.90;73.20;;;;;;5056270;28;20147;-75
2023/04/23 10:59:33;;;;;;;1999.90;999.90;;;18.80;69.90;;;;;;5057464;28;20043;-76
2023/04/23 11:02:11;;;;;;;1999.90;999.90;;;19.20;67.20;;;;;;5069284;28;20638;-73
2023/04/23 11:04:56;;;;;;;1999.90;999.90;;;19.50;67.20;;;;;;5056973;28;20055;-73
2023/04/23 11:07:30;;;;;;;1999.90;999.90;;;19.30;67.60;;;;;;5069042;28;20037;-73
2023/04/23 11:09:59;;;;;;;1999.90;999.90;;;18.90;68.50;;;;;;5074632;28;20040;-73
2023/04/23 11:12:28;;;;;;;1999.90;999.90;;;18.50;70.10;;;;;;5067522;28;20028;-73
2023/04/23 11:14:55;;;;;;;1999.90;999.90;;;18.50;69.80;;;;;;5060530;28;20025;-72
2023/04/23 11:17:42;;;;;;;1999.90;999.90;;;18.80;69.20;;;;;;5052922;28;20094;-73
2023/04/23 11:20:09;;;;;;;1999.90;999.90;;;18.90;69.60;;;;;;5057488;28;20036;-73
2023/04/23 11:22:40;;;;;;;1999.90;999.90;;;19.10;67.50;;;;;;5068401;28;20441;-73
2023/04/23 11:25:11;;;;;;;1999.90;999.90;;;19.50;65.70;;;;;;5049733;28;20499;-72
2023/04/23 11:27:43;;;;;;;1999.90;999.90;;;19.90;66.70;;;;;;5039538;28;20033;-73
2023/04/23 11:30:15;;;;;;;1999.90;999.90;;;19.90;65.40;;;;;;5074514;28;20039;-72
2023/04/23 11:32:44;;;;;;;1999.90;999.90;;;20.10;64.50;;;;;;5060476;28;20028;-72
2023/04/23 11:35:12;;;;;;;1999.90;999.90;;;19.50;63.80;;;;;;5057301;28;20060;-72
2023/04/23 11:37:39;;;;;;;1999.90;999.90;;;19.40;67.40;;;;;;5060790;28;20031;-73
2023/04/23 11:40:08;;;;;;;1999.90;999.90;;;19.20;65.40;;;;;;5061232;28;20051;-74
2023/04/23 11:42:45;;;;;;;1999.90;999.90;;;19.00;66.90;;;;;;5065484;28;20066;-74
2023/04/23 11:45:29;;;;;;;1999.90;999.90;;;19.50;64.80;;;;;;5073535;28;20035;-74
2023/04/23 11:47:57;;;;;;;1999.90;999.90;;;19.30;67.40;;;;;;5071555;28;20074;-77
2023/04/23 11:50:28;;;;;;;1999.90;999.90;;;20.00;66.30;;;;;;5038872;28;20038;-76
2023/04/23 11:52:54;;;;;;;1999.90;999.90;;;21.00;62.80;;;;;;5069746;28;20020;-76
2023/04/23 11:55:21;;;;;;;1999.90;999.90;;;21.70;59.70;;;;;;5066776;28;20404;-77
2023/04/23 11:57:48;;;;;;;1999.90;999.90;;;21.90;61.30;;;;;;5055483;28;20536;-76